TCA weather

Tennant Creek Airport
Tennant Creek, Northern Territory, Australia

Public forecast

Using degrees Celsius for public forecast. Weather courtesy of forecast.io.

METAR (pilot weather report)

Retrieved 2019/03/21 05:00 UTC (9 minutes ago):

YTNK 210500Z AUTO 14009KT 060V160 9999 // NCD 39/04 Q1007

TAF (pilot weather forecast)

Retrieved 2019/03/21 02:03 UTC (3 hours ago):

TAF TAF YTNK 210039Z 2102/2114 11016G26KT CAVOK FM210400 13014KT CAVOK FM211000 10010KT CAVOK